sensor_id;sensor_type;location;lat;lon;timestamp;pressure;altitude;pressure_sealevel;temperature;humidity
43878;BME280;29815;48.184;11.268;2024-01-07T00:00:35;94752.84;;;0.17;100.00
43878;BME280;29815;48.184;11.268;2024-01-07T00:03:04;94750.63;;;0.14;100.00
43878;BME280;29815;48.184;11.268;2024-01-07T00:05:35;94747.19;;;0.14;100.00
43878;BME280;29815;48.184;11.268;2024-01-07T00:08:06;94753.50;;;0.13;100.00
43878;BME280;29815;48.184;11.268;2024-01-07T00:10:35;94756.38;;;0.11;100.00
43878;BME280;29815;48.184;11.268;2024-01-07T00:13:04;94753.94;;;0.10;100.00
43878;BME280;29815;48.184;11.268;2024-01-07T00:15:35;94752.91;;;0.11;100.00
43878;BME280;29815;48.184;11.268;2024-01-07T00:18:04;94751.53;;;0.08;100.00
43878;BME280;29815;48.184;11.268;2024-01-07T00:20:34;94748.28;;;0.06;100.00
43878;BME280;29815;48.184;11.268;2024-01-07T00:23:03;94754.16;;;0.08;100.00
43878;BME280;29815;48.184;11.268;2024-01-07T00:25:32;94754.75;;;0.10;100.00
43878;BME280;29815;48.184;11.268;2024-01-07T00:28:02;94747.63;;;0.11;100.00
43878;BME280;29815;48.184;11.268;2024-01-07T00:30:32;94751.88;;;0.12;100.00
43878;BME280;29815;48.184;11.268;2024-01-07T00:33:02;94752.09;;;0.10;100.00
43878;BME280;29815;48.184;11.268;2024-01-07T00:35:33;94756.00;;;0.08;100.00
43878;BME280;29815;48.184;11.268;2024-01-07T00:38:02;94754.97;;;0.09;100.00
43878;BME280;29815;48.184;11.268;2024-01-07T00:40:31;94750.13;;;0.06;100.00
43878;BME280;29815;48.184;11.268;2024-01-07T00:43:00;94756.69;;;0.03;100.00
43878;BME280;29815;48.184;11.268;2024-01-07T00:45:30;94754.38;;;0.07;100.00
43878;BME280;29815;48.184;11.268;2024-01-07T00:47:59;94760.72;;;0.06;100.00
43878;BME280;29815;48.184;11.268;2024-01-07T00:50:30;94754.03;;;0.03;100.00
43878;BME280;29815;48.184;11.268;2024-01-07T00:52:59;94757.16;;;0.00;100.00
43878;BME280;29815;48.184;11.268;2024-01-07T00:55:29;94756.34;;;-0.01;100.00
43878;BME280;29815;48.184;11.268;2024-01-07T00:57:58;94752.31;;;-0.03;100.00
43878;BME280;29815;48.184;11.268;2024-01-07T01:00:27;94745.19;;;-0.03;100.00
43878;BME280;29815;48.184;11.268;2024-01-07T01:02:57;94762.50;;;-0.07;100.00
43878;BME280;29815;48.184;11.268;2024-01-07T01:05:26;94759.06;;;-0.07;100.00
43878;BME280;29815;48.184;11.268;2024-01-07T01:07:57;94754.59;;;-0.07;100.00
43878;BME280;29815;48.184;11.268;2024-01-07T01:10:26;94756.34;;;-0.01;100.00
43878;BME280;29815;48.184;11.268;2024-01-07T01:12:56;94762.44;;;0.00;100.00
43878;BME280;29815;48.184;11.268;2024-01-07T01:15:26;94761.84;;;-0.02;100.00
43878;BME280;29815;48.184;11.268;2024-01-07T01:17:56;94763.31;;;-0.06;100.00
43878;BME280;29815;48.184;11.268;2024-01-07T01:20:26;94763.09;;;-0.05;100.00
43878;BME280;29815;48.184;11.268;2024-01-07T01:22:57;94760.47;;;-0.05;100.00
43878;BME280;29815;48.184;11.268;2024-01-07T01:25:26;94767.59;;;-0.05;100.00
43878;BME280;29815;48.184;11.268;2024-01-07T01:27:57;94754.34;;;-0.05;100.00
43878;BME280;29815;48.184;11.268;2024-01-07T01:30:27;94769.66;;;-0.07;100.00
43878;BME280;29815;48.184;11.268;2024-01-07T01:32:59;94760.47;;;-0.05;100.00
43878;BME280;29815;48.184;11.268;2024-01-07T01:35:29;94764.34;;;-0.07;100.00
43878;BME280;29815;48.184;11.268;2024-01-07T01:38:00;94765.59;;;-0.10;100.00
43878;BME280;29815;48.184;11.268;2024-01-07T01:40:29;94770.09;;;-0.10;100.00
43878;BME280;29815;48.184;11.268;2024-01-07T01:42:59;94766.63;;;-0.11;100.00
43878;BME280;29815;48.184;11.268;2024-01-07T01:45:28;94762.38;;;-0.12;100.00
43878;BME280;29815;48.184;11.268;2024-01-07T01:47:57;94763.41;;;-0.13;100.00
43878;BME280;29815;48.184;11.268;2024-01-07T01:50:27;94766.25;;;-0.14;100.00
43878;BME280;29815;48.184;11.268;2024-01-07T01:52:56;94755.69;;;-0.14;100.00
43878;BME280;29815;48.184;11.268;2024-01-07T01:55:27;94755.69;;;-0.14;100.00
43878;BME280;29815;48.184;11.268;2024-01-07T01:57:56;94760.75;;;-0.13;100.00
43878;BME280;29815;48.184;11.268;2024-01-07T02:00:27;94752.00;;;-0.13;100.00
43878;BME280;29815;48.184;11.268;2024-01-07T02:02:58;94755.47;;;-0.13;100.00
43878;BME280;29815;48.184;11.268;2024-01-07T02:05:28;94760.97;;;-0.14;100.00
43878;BME280;29815;48.184;11.268;2024-01-07T02:07:58;94764.06;;;-0.17;100.00
43878;BME280;29815;48.184;11.268;2024-01-07T02:10:30;94763.25;;;-0.18;100.00
43878;BME280;29815;48.184;11.268;2024-01-07T02:13:02;94766.50;;;-0.16;100.00
43878;BME280;29815;48.184;11.268;2024-01-07T02:15:35;94760.63;;;-0.18;100.00
43878;BME280;29815;48.184;11.268;2024-01-07T02:18:05;94769.34;;;-0.17;100.00
43878;BME280;29815;48.184;11.268;2024-01-07T02:20:34;94759.13;;;-0.14;100.00
43878;BME280;29815;48.184;11.268;2024-01-07T02:23:04;94759.13;;;-0.14;100.00
43878;BME280;29815;48.184;11.268;2024-01-07T02:25:38;94763.19;;;-0.11;100.00
43878;BME280;29815;48.184;11.268;2024-01-07T02:28:07;94761.34;;;-0.11;100.00
43878;BME280;29815;48.184;11.268;2024-01-07T02:30:37;94763.19;;;-0.11;100.00
43878;BME280;29815;48.184;11.268;2024-01-07T02:33:06;94758.91;;;-0.12;100.00
43878;BME280;29815;48.184;11.268;2024-01-07T02:35:36;94767.44;;;-0.10;100.00
43878;BME280;29815;48.184;11.268;2024-01-07T02:38:06;94757.22;;;-0.07;100.00
43878;BME280;29815;48.184;11.268;2024-01-07T02:40:35;94758.63;;;-0.04;100.00
43878;BME280;29815;48.184;11.268;2024-01-07T02:43:06;94755.75;;;-0.03;100.00
43878;BME280;29815;48.184;11.268;2024-01-07T02:45:35;94754.34;;;-0.05;100.00
43878;BME280;29815;48.184;11.268;2024-01-07T02:48:05;94755.63;;;-0.08;100.00
43878;BME280;29815;48.184;11.268;2024-01-07T02:50:35;94753.56;;;-0.06;100.00
43878;BME280;29815;48.184;11.268;2024-01-07T02:53:05;94751.59;;;0.02;100.00
43878;BME280;29815;48.184;11.268;2024-01-07T02:55:36;94757.16;;;0.00;100.00
43878;BME280;29815;48.184;11.268;2024-01-07T02:58:06;94747.81;;;-0.03;100.00
43878;BME280;29815;48.184;11.268;2024-01-07T03:00:36;94753.69;;;-0.01;100.00
43878;BME280;29815;48.184;11.268;2024-01-07T03:03:05;94748.97;;;0.02;100.00
43878;BME280;29815;48.184;11.268;2024-01-07T03:05:35;94754.25;;;0.02;100.00
43878;BME280;29815;48.184;11.268;2024-01-07T03:08:05;94747.13;;;0.02;100.00
43878;BME280;29815;48.184;11.268;2024-01-07T03:10:35;94746.31;;;0.02;100.00
43878;BME280;29815;48.184;11.268;2024-01-07T03:13:05;94740.69;;;-0.02;100.00
43878;BME280;29815;48.184;11.268;2024-01-07T03:15:35;94743.56;;;-0.04;100.00
43878;BME280;29815;48.184;11.268;2024-01-07T03:18:06;94741.28;;;0.00;100.00
43878;BME280;29815;48.184;11.268;2024-01-07T03:20:36;94737.81;;;-0.01;100.00
43878;BME280;29815;48.184;11.268;2024-01-07T03:23:05;94746.56;;;0.00;100.00
43878;BME280;29815;48.184;11.268;2024-01-07T03:25:34;94753.09;;;-0.03;100.00
43878;BME280;29815;48.184;11.268;2024-01-07T03:28:04;94748.25;;;-0.06;100.00
43878;BME280;29815;48.184;11.268;2024-01-07T03:30:35;94746.78;;;-0.02;100.00
43878;BME280;29815;48.184;11.268;2024-01-07T03:33:04;94745.97;;;-0.02;100.00
43878;BME280;29815;48.184;11.268;2024-01-07T03:35:33;94746.44;;;-0.05;100.00
43878;BME280;29815;48.184;11.268;2024-01-07T03:38:02;94746.28;;;-0.10;100.00
43878;BME280;29815;48.184;11.268;2024-01-07T03:40:32;94747.09;;;-0.10;100.00
43878;BME280;29815;48.184;11.268;2024-01-07T03:43:01;94754.81;;;-0.08;100.00
43878;BME280;29815;48.184;11.268;2024-01-07T03:45:30;94758.25;;;-0.08;100.00
43878;BME280;29815;48.184;11.268;2024-01-07T03:48:01;94754.22;;;-0.10;100.00
43878;BME280;29815;48.184;11.268;2024-01-07T03:50:30;94759.94;;;-0.13;100.00
43878;BME280;29815;48.184;11.268;2024-01-07T03:53:00;94757.53;;;-0.15;100.00
43878;BME280;29815;48.184;11.268;2024-01-07T03:55:29;94759.38;;;-0.15;100.00
43878;BME280;29815;48.184;11.268;2024-01-07T03:57:59;94758.91;;;-0.12;100.00
43878;BME280;29815;48.184;11.268;2024-01-07T04:00:28;94766.50;;;-0.16;100.00
43878;BME280;29815;48.184;11.268;2024-01-07T04:02:57;94762.22;;;-0.17;100.00
43878;BME280;29815;48.184;11.268;2024-01-07T04:05:28;94764.66;;;-0.15;100.00
43878;BME280;29815;48.184;11.268;2024-01-07T04:07:58;94769.13;;;-0.16;100.00
43878;BME280;29815;48.184;11.268;2024-01-07T04:10:27;94765.09;;;-0.18;100.00
43878;BME280;29815;48.184;11.268;2024-01-07T04:12:56;94767.50;;;-0.17;100.00
43878;BME280;29815;48.184;11.268;2024-01-07T04:15:26;94771.19;;;-0.18;100.00
43878;BME280;29815;48.184;11.268;2024-01-07T04:17:55;94763.03;;;-0.16;100.00
43878;BME280;29815;48.184;11.268;2024-01-07T04:20:25;94764.88;;;-0.17;100.00
43878;BME280;29815;48.184;11.268;2024-01-07T04:22:56;94765.69;;;-0.16;100.00
43878;BME280;29815;48.184;11.268;2024-01-07T04:25:25;94770.75;;;-0.15;100.00
43878;BME280;29815;48.184;11.268;2024-01-07T04:27:55;94772.59;;;-0.15;100.00
43878;BME280;29815;48.184;11.268;2024-01-07T04:30:24;94777.06;;;-0.16;100.00
43878;BME280;29815;48.184;11.268;2024-01-07T04:32:53;94772.38;;;-0.14;100.00
43878;BME280;29815;48.184;11.268;2024-01-07T04:35:23;94774.19;;;-0.14;100.00
43878;BME280;29815;48.184;11.268;2024-01-07T04:37:52;94781.31;;;-0.15;100.00
43878;BME280;29815;48.184;11.268;2024-01-07T04:40:22;94781.09;;;-0.13;100.00
43878;BME280;29815;48.184;11.268;2024-01-07T04:42:52;94788.22;;;-0.14;100.00
43878;BME280;29815;48.184;11.268;2024-01-07T04:45:21;94790.06;;;-0.14;100.00
43878;BME280;29815;48.184;11.268;2024-01-07T04:47:51;94790.88;;;-0.14;100.00
43878;BME280;29815;48.184;11.268;2024-01-07T04:50:20;94788.22;;;-0.14;100.00
43878;BME280;29815;48.184;11.268;2024-01-07T04:52:50;94792.72;;;-0.14;100.00
43878;BME280;29815;48.184;11.268;2024-01-07T04:55:20;94791.09;;;-0.15;100.00
43878;BME280;29815;48.184;11.268;2024-01-07T04:57:50;94793.53;;;-0.14;100.00
43878;BME280;29815;48.184;11.268;2024-01-07T05:00:20;94796.38;;;-0.15;100.00
43878;BME280;29815;48.184;11.268;2024-01-07T05:02:49;94798.81;;;-0.14;100.00
43878;BME280;29815;48.184;11.268;2024-01-07T05:05:18;94806.16;;;-0.16;100.00
43878;BME280;29815;48.184;11.268;2024-01-07T05:07:47;94809.59;;;-0.15;100.00
43878;BME280;29815;48.184;11.268;2024-01-07T05:10:17;94813.06;;;-0.15;100.00
43878;BME280;29815;48.184;11.268;2024-01-07T05:12:46;94812.25;;;-0.15;100.00
43878;BME280;29815;48.184;11.268;2024-01-07T05:15:17;94813.66;;;-0.13;100.00
43878;BME280;29815;48.184;11.268;2024-01-07T05:17:46;94818.94;;;-0.13;100.00
43878;BME280;29815;48.184;11.268;2024-01-07T05:20:15;94811.81;;;-0.12;100.00
43878;BME280;29815;48.184;11.268;2024-01-07T05:22:45;94811.00;;;-0.13;100.00
43878;BME280;29815;48.184;11.268;2024-01-07T05:25:14;94813.44;;;-0.11;100.00
43878;BME280;29815;48.184;11.268;2024-01-07T05:27:43;94823.78;;;-0.10;100.00
43878;BME280;29815;48.184;11.268;2024-01-07T05:30:13;94820.94;;;-0.08;100.00
43878;BME280;29815;48.184;11.268;2024-01-07T05:32:44;94815.19;;;-0.05;100.00
43878;BME280;29815;48.184;11.268;2024-01-07T05:35:13;94819.69;;;-0.06;100.00
43878;BME280;29815;48.184;11.268;2024-01-07T05:37:43;94820.47;;;-0.05;100.00
43878;BME280;29815;48.184;11.268;2024-01-07T05:40:12;94825.19;;;-0.07;100.00
43878;BME280;29815;48.184;11.268;2024-01-07T05:42:41;94828.63;;;-0.07;100.00
43878;BME280;29815;48.184;11.268;2024-01-07T05:45:11;94821.72;;;-0.08;100.00
43878;BME280;29815;48.184;11.268;2024-01-07T05:47:40;94822.53;;;-0.07;100.00
43878;BME280;29815;48.184;11.268;2024-01-07T05:50:11;94827.84;;;-0.07;100.00
43878;BME280;29815;48.184;11.268;2024-01-07T05:52:43;94831.28;;;-0.07;100.00
43878;BME280;29815;48.184;11.268;2024-01-07T05:55:13;94828.41;;;-0.05;100.00
43878;BME280;29815;48.184;11.268;2024-01-07T05:57:43;94828.19;;;-0.04;100.00
43878;BME280;29815;48.184;11.268;2024-01-07T06:00:13;94831.88;;;-0.05;100.00
43878;BME280;29815;48.184;11.268;2024-01-07T06:02:43;94829.81;;;-0.03;100.00
43878;BME280;29815;48.184;11.268;2024-01-07T06:05:13;94827.16;;;-0.03;100.00
43878;BME280;29815;48.184;11.268;2024-01-07T06:07:43;94835.09;;;-0.03;100.00
43878;BME280;29815;48.184;11.268;2024-01-07T06:10:14;94842.22;;;-0.03;100.00
43878;BME280;29815;48.184;11.268;2024-01-07T06:12:43;94841.22;;;-0.02;100.00
43878;BME280;29815;48.184;11.268;2024-01-07T06:15:13;94846.50;;;-0.02;100.00
43878;BME280;29815;48.184;11.268;2024-01-07T06:17:42;94842.22;;;-0.03;100.00
43878;BME280;29815;48.184;11.268;2024-01-07T06:20:15;94846.72;;;-0.04;100.00
43878;BME280;29815;48.184;11.268;2024-01-07T06:22:45;94848.56;;;-0.04;100.00
43878;BME280;29815;48.184;11.268;2024-01-07T06:25:14;94852.00;;;-0.04;100.00
43878;BME280;29815;48.184;11.268;2024-01-07T06:27:43;94857.28;;;-0.04;100.00
43878;BME280;29815;48.184;11.268;2024-01-07T06:30:13;94851.78;;;-0.02;100.00
43878;BME280;29815;48.184;11.268;2024-01-07T06:32:44;94858.09;;;-0.03;100.00
43878;BME280;29815;48.184;11.268;2024-01-07T06:35:17;94854.44;;;-0.02;100.00
43878;BME280;29815;48.184;11.268;2024-01-07T06:37:46;94857.06;;;-0.02;100.00
43878;BME280;29815;48.184;11.268;2024-01-07T06:40:15;94860.75;;;-0.03;100.00
43878;BME280;29815;48.184;11.268;2024-01-07T06:42:44;94858.69;;;-0.01;100.00
43878;BME280;29815;48.184;11.268;2024-01-07T06:45:16;94866.63;;;-0.01;100.00
43878;BME280;29815;48.184;11.268;2024-01-07T06:47:46;94864.53;;;0.01;100.00
43878;BME280;29815;48.184;11.268;2024-01-07T06:50:16;94867.44;;;-0.01;100.00
43878;BME280;29815;48.184;11.268;2024-01-07T06:52:47;94871.66;;;0.00;100.00
43878;BME280;29815;48.184;11.268;2024-01-07T06:55:17;94879.59;;;0.00;100.00
43878;BME280;29815;48.184;11.268;2024-01-07T06:57:46;94884.91;;;0.00;100.00
43878;BME280;29815;48.184;11.268;2024-01-07T07:00:16;94878.81;;;0.00;100.00
43878;BME280;29815;48.184;11.268;2024-01-07T07:02:46;94883.88;;;0.02;100.00
43878;BME280;29815;48.184;11.268;2024-01-07T07:05:16;94882.84;;;0.03;100.00
43878;BME280;29815;48.184;11.268;2024-01-07T07:07:46;94888.72;;;0.05;100.00
43878;BME280;29815;48.184;11.268;2024-01-07T07:10:16;94894.00;;;0.05;100.00
43878;BME280;29815;48.184;11.268;2024-01-07T07:12:45;94899.31;;;0.05;100.00
43878;BME280;29815;48.184;11.268;2024-01-07T07:15:15;94900.13;;;0.05;100.00
43878;BME280;29815;48.184;11.268;2024-01-07T07:17:44;94898.28;;;0.06;100.00
43878;BME280;29815;48.184;11.268;2024-01-07T07:20:13;94899.91;;;0.07;100.00
43878;BME280;29815;48.184;11.268;2024-01-07T07:22:44;94906.81;;;0.08;100.00
43878;BME280;29815;48.184;11.268;2024-01-07T07:25:14;94908.41;;;0.09;100.00
43878;BME280;29815;48.184;11.268;2024-01-07T07:27:43;94906.81;;;0.08;100.00
43878;BME280;29815;48.184;11.268;2024-01-07T07:30:13;94911.28;;;0.07;100.00
43878;BME280;29815;48.184;11.268;2024-01-07T07:32:43;94914.75;;;0.08;100.00
43878;BME280;29815;48.184;11.268;2024-01-07T07:35:12;94923.50;;;0.08;100.00
43878;BME280;29815;48.184;11.268;2024-01-07T07:37:42;94926.13;;;0.08;100.00
43878;BME280;29815;48.184;11.268;2024-01-07T07:40:13;94922.69;;;0.08;100.00
43878;BME280;29815;48.184;11.268;2024-01-07T07:42:42;94924.50;;;0.07;100.00
43878;BME280;29815;48.184;11.268;2024-01-07T07:45:12;94934.88;;;0.09;100.00
43878;BME280;29815;48.184;11.268;2024-01-07T07:47:41;94930.84;;;0.06;100.00
43878;BME280;29815;48.184;11.268;2024-01-07T07:50:13;94932.44;;;0.07;100.00
43878;BME280;29815;48.184;11.268;2024-01-07T07:52:43;94937.75;;;0.07;100.00
43878;BME280;29815;48.184;11.268;2024-01-07T07:55:14;94936.72;;;0.08;100.00
43878;BME280;29815;48.184;11.268;2024-01-07T07:57:43;94942.81;;;0.09;100.00
43878;BME280;29815;48.184;11.268;2024-01-07T08:00:14;94944.44;;;0.10;100.00
43878;BME280;29815;48.184;11.268;2024-01-07T08:02:44;94944.00;;;0.13;100.00
43878;BME280;29815;48.184;11.268;2024-01-07T08:05:14;94946.66;;;0.13;100.00
43878;BME280;29815;48.184;11.268;2024-01-07T08:07:43;94941.94;;;0.15;100.00
43878;BME280;29815;48.184;11.268;2024-01-07T08:10:14;94948.84;;;0.16;100.00
43878;BME280;29815;48.184;11.268;2024-01-07T08:12:44;94948.03;;;0.15;100.00
43878;BME280;29815;48.184;11.268;2024-01-07T08:15:13;94949.44;;;0.18;100.00
43878;BME280;29815;48.184;11.268;2024-01-07T08:17:42;94955.53;;;0.18;100.00
43878;BME280;29815;48.184;11.268;2024-01-07T08:20:12;94955.53;;;0.18;100.00
43878;BME280;29815;48.184;11.268;2024-01-07T08:22:42;94951.88;;;0.19;100.00
43878;BME280;29815;48.184;11.268;2024-01-07T08:25:12;94956.94;;;0.21;100.00
43878;BME280;29815;48.184;11.268;2024-01-07T08:27:42;94959.59;;;0.21;100.00
43878;BME280;29815;48.184;11.268;2024-01-07T08:30:12;94962.84;;;0.23;100.00
43878;BME280;29815;48.184;11.268;2024-01-07T08:32:42;94959.97;;;0.24;100.00
43878;BME280;29815;48.184;11.268;2024-01-07T08:35:12;94967.91;;;0.24;100.00
43878;BME280;29815;48.184;11.268;2024-01-07T08:37:44;94976.44;;;0.26;100.00
43878;BME280;29815;48.184;11.268;2024-01-07T08:40:15;94978.03;;;0.27;100.00
43878;BME280;29815;48.184;11.268;2024-01-07T08:42:47;94971.69;;;0.28;100.00
43878;BME280;29815;48.184;11.268;2024-01-07T08:45:16;94980.44;;;0.29;100.00
43878;BME280;29815;48.184;11.268;2024-01-07T08:47:46;94977.81;;;0.29;100.00
43878;BME280;29815;48.184;11.268;2024-01-07T08:50:16;94976.19;;;0.28;100.00
43878;BME280;29815;48.184;11.268;2024-01-07T08:52:45;94982.28;;;0.28;100.00
43878;BME280;29815;48.184;11.268;2024-01-07T08:55:17;94978.03;;;0.27;100.00
43878;BME280;29815;48.184;11.268;2024-01-07T08:57:46;94996.56;;;0.27;100.00
43878;BME280;29815;48.184;11.268;2024-01-07T09:00:17;94990.47;;;0.27;100.00
43878;BME280;29815;48.184;11.268;2024-01-07T09:02:47;95002.44;;;0.29;100.00
43878;BME280;29815;48.184;11.268;2024-01-07T09:05:16;95004.06;;;0.30;100.00
43878;BME280;29815;48.184;11.268;2024-01-07T09:07:46;95004.88;;;0.31;100.00
43878;BME280;29815;48.184;11.268;2024-01-07T09:10:16;95008.09;;;0.33;100.00
43878;BME280;29815;48.184;11.268;2024-01-07T09:12:46;95008.47;;;0.37;100.00
43878;BME280;29815;48.184;11.268;2024-01-07T09:15:18;95012.75;;;0.38;100.00
43878;BME280;29815;48.184;11.268;2024-01-07T09:17:47;95007.22;;;0.39;100.00
43878;BME280;29815;48.184;11.268;2024-01-07T09:20:17;95016.78;;;0.40;100.00
43878;BME280;29815;48.184;11.268;2024-01-07T09:22:47;95013.94;;;0.42;100.00
43878;BME280;29815;48.184;11.268;2024-01-07T09:25:18;95028.78;;;0.43;100.00
43878;BME280;29815;48.184;11.268;2024-01-07T09:27:48;95021.44;;;0.45;100.00
43878;BME280;29815;48.184;11.268;2024-01-07T09:30:17;95014.09;;;0.47;100.00
43878;BME280;29815;48.184;11.268;2024-01-07T09:32:46;95018.34;;;0.48;100.00
43878;BME280;29815;48.184;11.268;2024-01-07T09:35:16;95019.75;;;0.50;100.00
43878;BME280;29815;48.184;11.268;2024-01-07T09:37:45;95022.41;;;0.50;100.00
43878;BME280;29815;48.184;11.268;2024-01-07T09:40:18;95022.63;;;0.49;100.00
43878;BME280;29815;48.184;11.268;2024-01-07T09:42:48;95025.25;;;0.49;100.00
43878;BME280;29815;48.184;11.268;2024-01-07T09:45:18;95021.81;;;0.48;100.00
43878;BME280;29815;48.184;11.268;2024-01-07T09:47:50;95014.66;;;0.49;100.00
43878;BME280;29815;48.184;11.268;2024-01-07T09:50:19;95026.06;;;0.49;100.00
43878;BME280;29815;48.184;11.268;2024-01-07T09:52:49;95023.44;;;0.49;100.00
43878;BME280;29815;48.184;11.268;2024-01-07T09:55:26;95028.72;;;0.49;100.00
43878;BME280;29815;48.184;11.268;2024-01-07T09:57:56;95028.94;;;0.48;100.00
43878;BME280;29815;48.184;11.268;2024-01-07T10:00:26;95026.28;;;0.48;100.00
43878;BME280;29815;48.184;11.268;2024-01-07T10:02:56;95032.41;;;0.48;100.00
43878;BME280;29815;48.184;11.268;2024-01-07T10:05:26;95025.84;;;0.51;100.00
43878;BME280;29815;48.184;11.268;2024-01-07T10:07:55;95031.16;;;0.51;100.00
43878;BME280;29815;48.184;11.268;2024-01-07T10:10:27;95033.34;;;0.54;100.00
43878;BME280;29815;48.184;11.268;2024-01-07T10:12:57;95027.25;;;0.53;100.00
43878;BME280;29815;48.184;11.268;2024-01-07T10:15:27;95038.66;;;0.54;100.00
43878;BME280;29815;48.184;11.268;2024-01-07T10:18:02;95035.41;;;0.52;100.00
43878;BME280;29815;48.184;11.268;2024-01-07T10:20:33;95032.78;;;0.52;100.00
43878;BME280;29815;48.184;11.268;2024-01-07T10:23:03;95034.59;;;0.51;100.00
43878;BME280;29815;48.184;11.268;2024-01-07T10:25:36;95029.44;;;0.56;100.00
43878;BME280;29815;48.184;11.268;2024-01-07T10:28:06;95030.47;;;0.55;100.00
43878;BME280;29815;48.184;11.268;2024-01-07T10:30:35;95030.84;;;0.59;100.00
43878;BME280;29815;48.184;11.268;2024-01-07T10:33:07;95038.34;;;0.62;100.00
43878;BME280;29815;48.184;11.268;2024-01-07T10:35:37;95031.00;;;0.64;100.00
43878;BME280;29815;48.184;11.268;2024-01-07T10:38:08;95038.13;;;0.63;100.00
43878;BME280;29815;48.184;11.268;2024-01-07T10:40:39;95032.00;;;0.63;100.00
43878;BME280;29815;48.184;11.268;2024-01-07T10:43:09;95040.56;;;0.65;100.00
43878;BME280;29815;48.184;11.268;2024-01-07T10:45:39;95039.38;;;0.61;100.00
43878;BME280;29815;48.184;11.268;2024-01-07T10:48:08;95030.63;;;0.60;100.00
43878;BME280;29815;48.184;11.268;2024-01-07T10:50:39;95043.84;;;0.60;100.00
43878;BME280;29815;48.184;11.268;2024-01-07T10:53:10;95041.00;;;0.62;100.00
43878;BME280;29815;48.184;11.268;2024-01-07T10:55:46;95048.50;;;0.65;100.00
43878;BME280;29815;48.184;11.268;2024-01-07T10:58:24;95041.16;;;0.67;100.00
43878;BME280;29815;48.184;11.268;2024-01-07T11:00:54;95046.81;;;0.71;100.00
43878;BME280;29815;48.184;11.268;2024-01-07T11:03:27;95048.81;;;0.75;100.00
43878;BME280;29815;48.184;11.268;2024-01-07T11:06:03;95048.38;;;0.78;100.00
43878;BME280;29815;48.184;11.268;2024-01-07T11:08:37;95044.91;;;0.78;100.00
43878;BME280;29815;48.184;11.268;2024-01-07T11:11:16;95046.59;;;0.72;100.00
43878;BME280;29815;48.184;11.268;2024-01-07T11:13:49;95039.69;;;0.71;100.00
43878;BME280;29815;48.184;11.268;2024-01-07T11:16:40;95041.88;;;0.74;100.00
43878;BME280;29815;48.184;11.268;2024-01-07T11:19:13;95041.28;;;0.72;100.00
43878;BME280;29815;48.184;11.268;2024-01-07T11:21:43;95047.19;;;0.74;100.00
43878;BME280;29815;48.184;11.268;2024-01-07T11:24:39;95041.88;;;0.74;100.00
43878;BME280;29815;48.184;11.268;2024-01-07T11:27:11;95035.78;;;0.74;100.00
43878;BME280;29815;48.184;11.268;2024-01-07T11:29:41;95042.91;;;0.73;100.00
43878;BME280;29815;48.184;11.268;2024-01-07T11:32:12;95044.75;;;0.73;100.00
43878;BME280;29815;48.184;11.268;2024-01-07T11:34:42;95039.69;;;0.71;100.00
43878;BME280;29815;48.184;11.268;2024-01-07T11:37:15;95043.34;;;0.70;100.00
43878;BME280;29815;48.184;11.268;2024-01-07T11:39:46;95043.56;;;0.68;100.00
43878;BME280;29815;48.184;11.268;2024-01-07T11:42:17;95049.47;;;0.71;100.00
43878;BME280;29815;48.184;11.268;2024-01-07T11:44:47;95045.63;;;0.66;100.00
43878;BME280;29815;48.184;11.268;2024-01-07T11:47:17;95042.16;;;0.66;100.00
43878;BME280;29815;48.184;11.268;2024-01-07T11:49:47;95044.59;;;0.67;100.00
43878;BME280;29815;48.184;11.268;2024-01-07T11:52:17;95042.38;;;0.64;100.00
43878;BME280;29815;48.184;11.268;2024-01-07T11:54:48;95052.97;;;0.64;100.00
43878;BME280;29815;48.184;11.268;2024-01-07T11:57:19;95046.50;;;0.60;100.00
43878;BME280;29815;48.184;11.268;2024-01-07T11:59:48;95051.22;;;0.58;100.00
43878;BME280;29815;48.184;11.268;2024-01-07T12:02:19;95045.91;;;0.58;100.00
43878;BME280;29815;48.184;11.268;2024-01-07T12:04:48;95053.72;;;0.53;100.00
43878;BME280;29815;48.184;11.268;2024-01-07T12:07:17;95059.47;;;0.50;100.00
43878;BME280;29815;48.184;11.268;2024-01-07T12:09:54;95062.97;;;0.44;100.00
43878;BME280;29815;48.184;11.268;2024-01-07T12:12:26;95063.41;;;0.41;100.00
43878;BME280;29815;48.184;11.268;2024-01-07T12:14:55;95064.44;;;0.40;100.00
43878;BME280;29815;48.184;11.268;2024-01-07T12:17:26;95065.25;;;0.41;100.00
43878;BME280;29815;48.184;11.268;2024-01-07T12:19:56;95069.72;;;0.40;100.00
43878;BME280;29815;48.184;11.268;2024-01-07T12:22:27;95071.72;;;0.45;100.00
43878;BME280;29815;48.184;11.268;2024-01-07T12:25:02;95075.78;;;0.47;100.00
43878;BME280;29815;48.184;11.268;2024-01-07T12:27:34;95072.09;;;0.48;100.00
43878;BME280;29815;48.184;11.268;2024-01-07T12:30:04;95076.81;;;0.46;100.00
43878;BME280;29815;48.184;11.268;2024-01-07T12:32:35;95077.47;;;0.42;100.00
43878;BME280;29815;48.184;11.268;2024-01-07T12:35:05;95074.44;;;0.38;100.00
43878;BME280;29815;48.184;11.268;2024-01-07T12:37:37;95083.25;;;0.32;100.00
43878;BME280;29815;48.184;11.268;2024-01-07T12:40:08;95083.03;;;0.33;100.00
43878;BME280;29815;48.184;11.268;2024-01-07T12:42:40;95082.84;;;0.28;100.00
43878;BME280;29815;48.184;11.268;2024-01-07T12:45:13;95083.03;;;0.33;100.00
43878;BME280;29815;48.184;11.268;2024-01-07T12:47:43;95089.34;;;0.32;100.00
43878;BME280;29815;48.184;11.268;2024-01-07T12:50:13;95087.13;;;0.29;100.00
43878;BME280;29815;48.184;11.268;2024-01-07T12:52:44;95090.38;;;0.31;100.00
43878;BME280;29815;48.184;11.268;2024-01-07T12:55:13;95096.34;;;0.27;100.00
43878;BME280;29815;48.184;11.268;2024-01-07T12:57:44;95093.00;;;0.31;100.00
43878;BME280;29815;48.184;11.268;2024-01-07T13:00:14;95101.97;;;0.30;100.00